メインページ
METAR-TAF:

METAR-TAF

空港 :

レジャイナ, サスカチュワン州, カナダ

緯度: 50-26N, 経度: 104-40W, 海抜: 577m

現時点の気象観測

当レポートは1時間18分前の10:00(UTC)に作成
北西の風 6kt
気温 -10°C
湿度 85%
気圧 1007 hPa
視程: 24.1km
晴天

METAR: CYQR 221000Z 32006KT 15SM SKC M10/M12 A2975 RMK SLP107

時間: 05:18 (11:18 UTC)

予報

当レポートは5時間40分前の05:38(UTC)に作成
予報は22日の 06時(UTC)から 23日の 06時(UTC)まで有効
西/南西の風 5kt
視程: 10km
高度22000ftの雲はほとんどない
22日の 2000時(UTC)から
西/南西の風 10kt
視程: 10km
高度8000ftの雲は散在している
高度12000ftの千切れ雲あり
22日の 22時(UTC)から 22日の 24時(UTC)まで徐々に
西の風 15kt、最大25ktの突風を伴う
23日の 0200時(UTC)から
西/北西の風 20kt、最大30ktの突風を伴う
視程: 10km
高度1500ftの雲は散在している
高度8000ftの雲は散在している
23日の 02時(UTC)から 23日の 06時(UTC)まで一時的に
高度1500ftの千切れ雲あり

TAF: CYQR 220538Z 2206/2306 25005KT P6SM FEW220 FM222000 24010KT P6SM SCT080 BKN120 BECMG 2222/2224 28015G25KT FM230200 30020G30KT P6SM SCT015 SCT080 TEMPO 2302/2306 BKN015 RMK NXT FCST BY 221200Z

4,000以上の空港の気象観測と天気予報(METAR報とTAF報)

利用可能な観測所は地図上に黄色い丸と赤い丸で示す。

丸の上にカーソルを重ねると観測所名を参照できる。

次にクリックすると気象観測と天気予報を参照できる。

マップの切り替え:黒色「×」印の緑ボタンをクリックして拡大、「-」印の緑ボタンをクリックして縮小、緑色の三角印をクリックして隣りの地図に切り替え


METAR-TAF: